Dalzell, IL

9:46 AM CDT on August 30, 2016 (GMT -0500)
Illinois Valley Regional-Duncan

Weather History for KVYS - December, 2013

Change the Weather History Date:

Saturday, December 28, 2013

  Actual Average Record
Temperature  
Mean Temperature 40 °F -  
Max Temperature 47 °F 33 °F 61 °F (1984)
Min Temperature 33 °F 17 °F -2 °F (1993)
Degree Days  
Heating Degree Days 25    
Moisture  
Dew Point 33 °F    
Average Humidity 76    
Maximum Humidity 90    
Minimum Humidity 61    
Precipitation  
Precipitation 0.00 in - - ()
Sea Level Pressure  
Sea Level Pressure 29.99 in    
Wind  
Wind Speed 12 mph (SSW)    
Max Wind Speed 18 mph    
Max Gust Speed 21 mph    
Visibility 10 miles    
Events      
Averages and records for this station are not official NWS values.
T = Trace of Precipitation, MM = Missing Value Source: NWS Daily Summary

Daily Weather History Graph

Daily Weather History Graph

Search for Another Location

Airport or City:

Trip Planner

Search our weather history database for the weather conditions in past years. The results will help you decide how hot, cold, wet, or windy it might be!

Date:

Astronomy

Dec. 28, 2013 Rise Set
Actual Time 7:21 AM CST 4:34 PM CST
Civil Twilight 6:50 AM CST 5:06 PM CST
Nautical Twilight 6:15 AM CST 5:40 PM CST
Astronomical Twilight 5:42 AM CST 6:14 PM CST
Moon 2:57 AM CST (12/28) 1:27 PM CST (12/28)
Length of Visible Light 10h 15m
Length of Day
9h 12m
Waning Crescent, 19% of the Moon is Illuminated
Dec 28
Waning Crescent
Jan 1
New
Jan 7
First Quarter
Jan 15
Full
Jan 23
Last Quarter

Hourly Weather History & Observations

Time (CST) Temp. Windchill Dew Point Humidity Pressure Visibility Wind Dir Wind Speed Gust Speed Precip Events Conditions
12:15 AM 39.6 °F 31.3 °F 32.0 °F 74% 30.11 in 10.0 mi WSW 15.0 mph - N/A   Clear
12:35 AM 39.2 °F 30.8 °F 32.2 °F 76% 30.11 in 10.0 mi WSW 15.0 mph - N/A   Clear
12:55 AM 38.5 °F 30.3 °F 32.0 °F 78% 30.10 in 10.0 mi WSW 13.8 mph - N/A   Clear
1:15 AM 38.3 °F 30.5 °F 32.0 °F 78% 30.10 in 10.0 mi WSW 12.7 mph - N/A   Clear
1:35 AM 38.3 °F 30.9 °F 32.0 °F 78% 30.10 in 10.0 mi WSW 11.5 mph - N/A   Clear
1:55 AM 37.4 °F 29.8 °F 32.0 °F 81% 30.10 in 10.0 mi WSW 11.5 mph - N/A   Clear
2:15 AM 37.6 °F 30.0 °F 32.0 °F 80% 30.10 in 10.0 mi WSW 11.5 mph - N/A   Clear
2:35 AM 36.9 °F 30.1 °F 32.0 °F 83% 30.11 in 10.0 mi WSW 9.2 mph - N/A   Clear
2:55 AM 36.9 °F 30.7 °F 32.0 °F 83% 30.10 in 10.0 mi WSW 8.1 mph - N/A   Clear
3:15 AM 36.9 °F 30.1 °F 32.0 °F 83% 30.10 in 10.0 mi WSW 9.2 mph - N/A   Clear
3:35 AM 36.5 °F 29.2 °F 32.0 °F 84% 30.09 in 10.0 mi SW 10.4 mph - N/A   Clear
3:55 AM 36.0 °F 28.0 °F 32.0 °F 86% 30.09 in 10.0 mi SW 11.5 mph - N/A   Clear
4:15 AM 36.9 °F 29.1 °F 32.0 °F 83% 30.10 in 10.0 mi SW 11.5 mph - N/A   Clear
4:35 AM 37.4 °F 28.2 °F 32.2 °F 81% 30.09 in 10.0 mi SW 16.1 mph 20.7 mph N/A   Clear
4:55 AM 37.0 °F 29.8 °F 32.0 °F 82% 30.09 in 10.0 mi SW 10.4 mph - N/A   Clear
5:15 AM 36.5 °F 29.2 °F 32.0 °F 84% 30.09 in 10.0 mi SW 10.4 mph - N/A   Clear
5:35 AM 35.6 °F 28.6 °F 31.6 °F 85% 30.09 in 10.0 mi SW 9.2 mph - N/A   Clear
5:55 AM 34.7 °F 27.5 °F 31.1 °F 87% 30.08 in 10.0 mi SW 9.2 mph - N/A   Clear
6:15 AM 34.3 °F 26.5 °F 31.1 °F 88% 30.08 in 10.0 mi SSW 10.4 mph - N/A   Clear
6:35 AM 34.2 °F 27.5 °F 31.1 °F 89% 30.08 in 10.0 mi SW 8.1 mph - N/A   Clear
6:55 AM 33.1 °F 25.5 °F 30.4 °F 90% 30.08 in 10.0 mi SSW 9.2 mph - N/A   Clear
7:15 AM 34.2 °F 26.2 °F 31.1 °F 89% 30.08 in 10.0 mi SSW 10.4 mph - N/A   Clear
7:35 AM 34.3 °F 26.5 °F 30.9 °F 87% 30.08 in 10.0 mi SSW 10.4 mph - N/A   Clear
7:55 AM 35.1 °F 27.4 °F 31.1 °F 85% 30.07 in 10.0 mi SSW 10.4 mph - N/A   Clear
8:15 AM 36.5 °F 29.2 °F 31.6 °F 83% 30.07 in 10.0 mi SSW 10.4 mph - N/A   Clear
8:35 AM 37.4 °F 30.3 °F 31.8 °F 80% 30.07 in 10.0 mi SSW 10.4 mph - N/A   Clear
8:55 AM 38.3 °F 31.9 °F 32.0 °F 78% 30.06 in 10.0 mi SW 9.2 mph - N/A   Clear
9:15 AM 39.6 °F 33.0 °F 32.0 °F 74% 30.06 in 10.0 mi SW 10.4 mph - N/A   Clear
9:35 AM 40.3 °F 33.4 °F 32.2 °F 73% 30.06 in 10.0 mi SW 11.5 mph - N/A   Clear
9:55 AM 41.0 °F 33.5 °F 32.4 °F 71% 30.06 in 10.0 mi SSW 13.8 mph - N/A   Clear
10:15 AM 42.1 °F 35.2 °F 32.9 °F 70% 30.06 in 10.0 mi SW 12.7 mph - N/A   Clear
10:35 AM 42.8 °F 36.6 °F 32.9 °F 68% 30.05 in 10.0 mi SW 11.5 mph - N/A   Clear
10:55 AM 43.7 °F 36.9 °F 32.9 °F 66% 30.05 in 10.0 mi SSW 13.8 mph - N/A   Clear
11:15 AM 44.6 °F 39.2 °F 33.1 °F 64% 30.03 in 10.0 mi SSW 10.4 mph - N/A   Clear
11:35 AM 45.1 °F 39.5 °F 32.9 °F 62% 30.02 in 10.0 mi SSW 11.5 mph - N/A   Clear
11:55 AM 45.5 °F 39.9 °F 32.9 °F 61% 30.00 in 10.0 mi SSW 11.5 mph - N/A   Clear
12:15 PM 45.9 °F 40.4 °F 33.1 °F 61% 29.99 in 10.0 mi SSW 11.5 mph - N/A   Clear
12:35 PM 46.4 °F 40.1 °F 33.4 °F 61% 29.99 in 10.0 mi SSW 15.0 mph - N/A   Clear
12:55 PM 46.4 °F 40.4 °F 33.8 °F 62% 29.98 in 10.0 mi SSW 13.8 mph - N/A   Clear
1:15 PM 46.6 °F - 34.2 °F 62% 29.97 in 10.0 mi SSW 17.3 mph - N/A   Clear
1:35 PM 47.3 °F - 34.7 °F 62% 29.97 in 10.0 mi SSW 15.0 mph - N/A   Clear
1:55 PM 47.5 °F - 34.9 °F 62% 29.96 in 10.0 mi SSW 15.0 mph - N/A   Clear
2:15 PM 46.4 °F 40.4 °F 35.6 °F 66% 29.96 in 10.0 mi South 13.8 mph - N/A   Clear
2:35 PM 46.4 °F 40.7 °F 36.1 °F 67% 29.95 in 10.0 mi South 12.7 mph - N/A   Clear
2:55 PM 45.9 °F 40.0 °F 35.8 °F 68% 29.94 in 10.0 mi South 12.7 mph - N/A   Clear
3:15 PM 44.8 °F 39.0 °F 36.5 °F 73% 29.95 in 10.0 mi South 11.5 mph - N/A   Clear
3:35 PM 45.0 °F 39.7 °F 36.5 °F 72% 29.94 in 10.0 mi South 10.4 mph - N/A   Clear
3:55 PM 43.3 °F 37.7 °F 35.8 °F 75% 29.94 in 10.0 mi South 10.4 mph - N/A   Clear
4:15 PM 42.3 °F 35.5 °F 35.8 °F 78% 29.94 in 10.0 mi South 12.7 mph - N/A   Clear
4:35 PM 41.2 °F 35.0 °F 35.1 °F 79% 29.93 in 10.0 mi South 10.4 mph - N/A   Clear
4:55 PM 40.8 °F 34.5 °F 34.9 °F 79% 29.92 in 10.0 mi South 10.4 mph - N/A   Clear
5:15 PM 41.2 °F 34.5 °F 34.7 °F 78% 29.93 in 10.0 mi South 11.5 mph - N/A   Clear
5:35 PM 42.8 °F 35.8 °F 34.5 °F 73% 29.92 in 10.0 mi SSW 13.8 mph - N/A   Clear
5:55 PM 43.9 °F 36.8 °F 34.2 °F 69% 29.91 in 10.0 mi SSW 15.0 mph - N/A   Clear
6:15 PM 43.3 °F 36.5 °F 34.0 °F 70% 29.91 in 10.0 mi SSW 13.8 mph - N/A   Clear
6:35 PM 42.3 °F 35.5 °F 33.6 °F 71% 29.91 in 10.0 mi South 12.7 mph - N/A   Clear
6:55 PM 41.4 °F 33.6 °F 33.4 °F 73% 29.91 in 10.0 mi SSW 15.0 mph - N/A   Clear
7:15 PM 41.4 °F 34.3 °F 32.9 °F 72% 29.90 in 10.0 mi South 12.7 mph - N/A   Clear
7:35 PM 41.9 °F 34.3 °F 33.4 °F 72% 29.89 in 10.0 mi SSW 15.0 mph - N/A   Clear
7:55 PM 42.1 °F 33.9 °F 33.4 °F 71% 29.88 in 10.0 mi SSW 17.3 mph - N/A   Clear
8:15 PM 41.0 °F 32.2 °F 32.7 °F 72% 29.88 in 10.0 mi SSW 18.4 mph - N/A   Clear
8:35 PM 41.0 °F 32.5 °F 32.4 °F 71% 29.87 in 10.0 mi SSW 17.3 mph - N/A   Clear
8:55 PM 39.9 °F 32.1 °F 32.2 °F 74% 29.86 in 10.0 mi SSW 13.8 mph - N/A   Clear
9:15 PM 39.6 °F 31.3 °F 32.0 °F 74% 29.86 in 10.0 mi SSW 15.0 mph - N/A   Clear
9:35 PM 39.6 °F 32.5 °F 32.4 °F 75% 29.86 in 10.0 mi SSW 11.5 mph - N/A   Clear
9:55 PM 38.7 °F 32.9 °F 32.0 °F 77% 29.86 in 10.0 mi SW 8.1 mph - N/A   Clear
10:15 PM 37.6 °F 31.6 °F 32.0 °F 80% 29.87 in 10.0 mi SSW 8.1 mph - N/A   Clear
10:35 PM 36.9 °F 31.4 °F 31.8 °F 82% 29.86 in 10.0 mi SSW 6.9 mph - N/A   Clear
10:55 PM 37.2 °F 31.2 °F 31.6 °F 80% 29.85 in 10.0 mi WSW 8.1 mph - N/A   Clear
11:15 PM 38.5 °F 32.1 °F 31.5 °F 76% 29.84 in 10.0 mi SW 9.2 mph - N/A   Clear
11:35 PM 36.1 °F 31.4 °F 30.7 °F 81% 29.85 in 10.0 mi SSW 5.8 mph - N/A   Clear
11:55 PM 36.5 °F 30.3 °F 30.7 °F 80% 29.84 in 10.0 mi SSW 8.1 mph - N/A   Clear